sensor_id;sensor_type;location;lat;lon;timestamp;P1;durP1;ratioP1;P2;durP2;ratioP2
23702;SDS011;12030;50.376;8.762;2022-10-16T00:00:33;4.93;;;2.33;;
23702;SDS011;12030;50.376;8.762;2022-10-16T00:03:00;3.37;;;2.23;;
23702;SDS011;12030;50.376;8.762;2022-10-16T00:05:26;4.73;;;2.20;;
23702;SDS011;12030;50.376;8.762;2022-10-16T00:07:52;3.47;;;2.00;;
23702;SDS011;12030;50.376;8.762;2022-10-16T00:10:18;4.97;;;2.10;;
23702;SDS011;12030;50.376;8.762;2022-10-16T00:12:43;4.37;;;2.20;;
23702;SDS011;12030;50.376;8.762;2022-10-16T00:15:09;5.17;;;2.40;;
23702;SDS011;12030;50.376;8.762;2022-10-16T00:17:34;4.33;;;2.10;;
23702;SDS011;12030;50.376;8.762;2022-10-16T00:20:00;3.80;;;2.00;;
23702;SDS011;12030;50.376;8.762;2022-10-16T00:22:26;5.47;;;2.13;;
23702;SDS011;12030;50.376;8.762;2022-10-16T00:24:51;2.00;;;1.90;;
23702;SDS011;12030;50.376;8.762;2022-10-16T00:27:17;3.77;;;1.70;;
23702;SDS011;12030;50.376;8.762;2022-10-16T00:29:42;3.03;;;1.60;;
23702;SDS011;12030;50.376;8.762;2022-10-16T00:32:08;3.30;;;2.13;;
23702;SDS011;12030;50.376;8.762;2022-10-16T00:34:34;3.73;;;1.50;;
23702;SDS011;12030;50.376;8.762;2022-10-16T00:36:59;4.67;;;1.53;;
23702;SDS011;12030;50.376;8.762;2022-10-16T00:39:25;1.50;;;1.40;;
23702;SDS011;12030;50.376;8.762;2022-10-16T00:41:50;6.20;;;1.93;;
23702;SDS011;12030;50.376;8.762;2022-10-16T00:47:09;2.57;;;1.70;;
23702;SDS011;12030;50.376;8.762;2022-10-16T00:49:37;4.13;;;1.57;;
23702;SDS011;12030;50.376;8.762;2022-10-16T00:52:03;2.20;;;1.50;;
23702;SDS011;12030;50.376;8.762;2022-10-16T00:54:31;2.70;;;1.40;;
23702;SDS011;12030;50.376;8.762;2022-10-16T00:56:58;3.50;;;1.43;;
23702;SDS011;12030;50.376;8.762;2022-10-16T00:59:27;3.90;;;1.40;;
23702;SDS011;12030;50.376;8.762;2022-10-16T01:01:53;2.53;;;1.60;;
23702;SDS011;12030;50.376;8.762;2022-10-16T01:04:19;2.47;;;1.30;;
23702;SDS011;12030;50.376;8.762;2022-10-16T01:06:51;3.33;;;1.80;;
23702;SDS011;12030;50.376;8.762;2022-10-16T01:09:51;3.43;;;2.03;;
23702;SDS011;12030;50.376;8.762;2022-10-16T01:12:46;2.67;;;2.07;;
23702;SDS011;12030;50.376;8.762;2022-10-16T01:15:42;4.13;;;3.63;;
23702;SDS011;12030;50.376;8.762;2022-10-16T01:29:03;7.13;;;6.13;;
23702;SDS011;12030;50.376;8.762;2022-10-16T01:31:40;9.20;;;6.73;;
23702;SDS011;12030;50.376;8.762;2022-10-16T01:34:11;9.43;;;7.20;;
23702;SDS011;12030;50.376;8.762;2022-10-16T01:36:43;9.03;;;7.67;;
23702;SDS011;12030;50.376;8.762;2022-10-16T01:39:13;9.37;;;8.37;;
23702;SDS011;12030;50.376;8.762;2022-10-16T01:41:42;9.43;;;8.53;;
23702;SDS011;12030;50.376;8.762;2022-10-16T01:44:17;12.80;;;8.97;;
23702;SDS011;12030;50.376;8.762;2022-10-16T01:46:55;11.10;;;7.97;;
23702;SDS011;12030;50.376;8.762;2022-10-16T01:49:22;10.03;;;8.43;;
23702;SDS011;12030;50.376;8.762;2022-10-16T01:51:52;10.90;;;8.43;;
23702;SDS011;12030;50.376;8.762;2022-10-16T01:54:21;11.20;;;8.43;;
23702;SDS011;12030;50.376;8.762;2022-10-16T01:56:50;10.87;;;9.47;;
23702;SDS011;12030;50.376;8.762;2022-10-16T01:59:17;10.50;;;9.30;;
23702;SDS011;12030;50.376;8.762;2022-10-16T02:01:47;14.00;;;10.60;;
23702;SDS011;12030;50.376;8.762;2022-10-16T02:06:52;12.57;;;10.87;;
23702;SDS011;12030;50.376;8.762;2022-10-16T02:09:18;13.67;;;10.03;;
23702;SDS011;12030;50.376;8.762;2022-10-16T02:11:44;13.43;;;11.10;;
23702;SDS011;12030;50.376;8.762;2022-10-16T02:14:10;16.70;;;11.40;;
23702;SDS011;12030;50.376;8.762;2022-10-16T02:16:40;13.93;;;11.63;;
23702;SDS011;12030;50.376;8.762;2022-10-16T02:19:09;15.77;;;11.87;;
23702;SDS011;12030;50.376;8.762;2022-10-16T02:21:43;15.17;;;12.03;;
23702;SDS011;12030;50.376;8.762;2022-10-16T02:27:10;15.77;;;11.43;;
23702;SDS011;12030;50.376;8.762;2022-10-16T02:29:40;16.67;;;11.93;;
23702;SDS011;12030;50.376;8.762;2022-10-16T02:32:15;20.03;;;12.77;;
23702;SDS011;12030;50.376;8.762;2022-10-16T02:34:44;14.20;;;11.23;;
23702;SDS011;12030;50.376;8.762;2022-10-16T02:37:13;16.53;;;11.83;;
23702;SDS011;12030;50.376;8.762;2022-10-16T02:39:39;15.20;;;11.73;;
23702;SDS011;12030;50.376;8.762;2022-10-16T02:42:09;15.43;;;11.13;;
23702;SDS011;12030;50.376;8.762;2022-10-16T02:44:38;16.00;;;11.50;;
23702;SDS011;12030;50.376;8.762;2022-10-16T02:47:04;17.10;;;11.57;;
23702;SDS011;12030;50.376;8.762;2022-10-16T02:49:30;15.03;;;12.47;;
23702;SDS011;12030;50.376;8.762;2022-10-16T02:51:55;18.30;;;12.40;;
23702;SDS011;12030;50.376;8.762;2022-10-16T02:54:21;15.10;;;12.27;;
23702;SDS011;12030;50.376;8.762;2022-10-16T02:56:46;15.63;;;12.37;;
23702;SDS011;12030;50.376;8.762;2022-10-16T02:59:12;13.43;;;12.03;;
23702;SDS011;12030;50.376;8.762;2022-10-16T03:01:38;15.17;;;11.30;;
23702;SDS011;12030;50.376;8.762;2022-10-16T03:04:03;13.67;;;11.43;;
23702;SDS011;12030;50.376;8.762;2022-10-16T03:06:29;14.70;;;11.57;;
23702;SDS011;12030;50.376;8.762;2022-10-16T03:08:54;14.30;;;11.30;;
23702;SDS011;12030;50.376;8.762;2022-10-16T03:11:20;12.73;;;11.43;;
23702;SDS011;12030;50.376;8.762;2022-10-16T03:13:45;14.87;;;12.10;;
23702;SDS011;12030;50.376;8.762;2022-10-16T03:16:11;16.53;;;11.47;;
23702;SDS011;12030;50.376;8.762;2022-10-16T03:18:36;14.33;;;12.10;;
23702;SDS011;12030;50.376;8.762;2022-10-16T03:21:02;13.23;;;11.63;;
23702;SDS011;12030;50.376;8.762;2022-10-16T03:23:28;13.90;;;11.30;;
23702;SDS011;12030;50.376;8.762;2022-10-16T03:25:53;13.40;;;11.00;;
23702;SDS011;12030;50.376;8.762;2022-10-16T03:28:19;13.93;;;11.27;;
23702;SDS011;12030;50.376;8.762;2022-10-16T03:30:44;13.20;;;11.13;;
23702;SDS011;12030;50.376;8.762;2022-10-16T03:33:10;9.67;;;8.63;;
23702;SDS011;12030;50.376;8.762;2022-10-16T03:35:36;9.77;;;8.77;;
23702;SDS011;12030;50.376;8.762;2022-10-16T03:38:01;6.23;;;5.03;;
23702;SDS011;12030;50.376;8.762;2022-10-16T03:40:27;1.77;;;1.40;;
23702;SDS011;12030;50.376;8.762;2022-10-16T03:42:52;1.30;;;1.20;;
23702;SDS011;12030;50.376;8.762;2022-10-16T03:45:22;1.80;;;1.00;;
23702;SDS011;12030;50.376;8.762;2022-10-16T03:47:47;1.47;;;0.83;;
23702;SDS011;12030;50.376;8.762;2022-10-16T03:50:13;1.00;;;0.90;;
23702;SDS011;12030;50.376;8.762;2022-10-16T03:52:38;1.37;;;1.23;;
23702;SDS011;12030;50.376;8.762;2022-10-16T03:55:04;1.97;;;1.87;;
23702;SDS011;12030;50.376;8.762;2022-10-16T03:57:30;2.50;;;2.30;;
23702;SDS011;12030;50.376;8.762;2022-10-16T03:59:56;3.37;;;2.70;;
23702;SDS011;12030;50.376;8.762;2022-10-16T04:02:21;3.40;;;3.10;;
23702;SDS011;12030;50.376;8.762;2022-10-16T04:04:47;3.97;;;3.57;;
23702;SDS011;12030;50.376;8.762;2022-10-16T04:07:12;4.40;;;3.77;;
23702;SDS011;12030;50.376;8.762;2022-10-16T04:09:38;4.73;;;3.73;;
23702;SDS011;12030;50.376;8.762;2022-10-16T04:12:03;4.80;;;4.30;;
23702;SDS011;12030;50.376;8.762;2022-10-16T04:14:29;4.47;;;3.87;;
23702;SDS011;12030;50.376;8.762;2022-10-16T04:16:55;6.40;;;5.80;;
23702;SDS011;12030;50.376;8.762;2022-10-16T04:19:20;10.33;;;6.30;;
23702;SDS011;12030;50.376;8.762;2022-10-16T04:21:46;7.93;;;7.23;;
23702;SDS011;12030;50.376;8.762;2022-10-16T04:24:11;9.07;;;7.13;;
23702;SDS011;12030;50.376;8.762;2022-10-16T04:26:37;9.63;;;8.07;;
23702;SDS011;12030;50.376;8.762;2022-10-16T04:29:03;9.80;;;8.10;;
23702;SDS011;12030;50.376;8.762;2022-10-16T04:31:28;9.50;;;8.60;;
23702;SDS011;12030;50.376;8.762;2022-10-16T04:33:54;9.87;;;8.43;;
23702;SDS011;12030;50.376;8.762;2022-10-16T04:36:20;9.33;;;8.53;;
23702;SDS011;12030;50.376;8.762;2022-10-16T04:38:45;11.47;;;9.03;;
23702;SDS011;12030;50.376;8.762;2022-10-16T04:41:11;10.00;;;9.00;;
23702;SDS011;12030;50.376;8.762;2022-10-16T04:43:37;12.80;;;8.57;;
23702;SDS011;12030;50.376;8.762;2022-10-16T04:46:02;10.60;;;9.53;;
23702;SDS011;12030;50.376;8.762;2022-10-16T04:48:29;9.00;;;8.10;;
23702;SDS011;12030;50.376;8.762;2022-10-16T04:50:55;7.67;;;7.07;;
23702;SDS011;12030;50.376;8.762;2022-10-16T04:53:21;10.20;;;7.23;;
23702;SDS011;12030;50.376;8.762;2022-10-16T04:55:46;6.73;;;5.93;;
23702;SDS011;12030;50.376;8.762;2022-10-16T04:58:12;6.30;;;5.70;;
23702;SDS011;12030;50.376;8.762;2022-10-16T05:00:38;5.67;;;5.27;;
23702;SDS011;12030;50.376;8.762;2022-10-16T05:03:04;5.80;;;5.20;;
23702;SDS011;12030;50.376;8.762;2022-10-16T05:05:32;5.27;;;4.77;;
23702;SDS011;12030;50.376;8.762;2022-10-16T05:07:58;5.00;;;4.60;;
23702;SDS011;12030;50.376;8.762;2022-10-16T05:10:23;4.63;;;4.03;;
23702;SDS011;12030;50.376;8.762;2022-10-16T05:12:49;5.07;;;3.40;;
23702;SDS011;12030;50.376;8.762;2022-10-16T05:15:16;6.77;;;3.40;;
23702;SDS011;12030;50.376;8.762;2022-10-16T05:17:41;6.93;;;3.70;;
23702;SDS011;12030;50.376;8.762;2022-10-16T05:20:07;5.07;;;3.23;;
23702;SDS011;12030;50.376;8.762;2022-10-16T05:22:33;4.73;;;3.30;;
23702;SDS011;12030;50.376;8.762;2022-10-16T05:24:58;3.80;;;3.40;;
23702;SDS011;12030;50.376;8.762;2022-10-16T05:27:24;3.63;;;3.33;;
23702;SDS011;12030;50.376;8.762;2022-10-16T05:29:49;4.53;;;3.47;;
23702;SDS011;12030;50.376;8.762;2022-10-16T05:32:15;4.97;;;3.37;;
23702;SDS011;12030;50.376;8.762;2022-10-16T05:34:42;4.50;;;3.60;;
23702;SDS011;12030;50.376;8.762;2022-10-16T05:37:08;4.47;;;3.40;;
23702;SDS011;12030;50.376;8.762;2022-10-16T05:39:33;7.57;;;3.40;;
23702;SDS011;12030;50.376;8.762;2022-10-16T05:41:59;4.33;;;3.50;;
23702;SDS011;12030;50.376;8.762;2022-10-16T05:44:25;3.27;;;2.97;;
23702;SDS011;12030;50.376;8.762;2022-10-16T05:46:50;4.10;;;3.30;;
23702;SDS011;12030;50.376;8.762;2022-10-16T05:49:16;3.87;;;3.57;;
23702;SDS011;12030;50.376;8.762;2022-10-16T05:51:41;4.57;;;3.57;;
23702;SDS011;12030;50.376;8.762;2022-10-16T05:54:07;5.33;;;3.37;;
23702;SDS011;12030;50.376;8.762;2022-10-16T05:56:33;3.83;;;3.50;;
23702;SDS011;12030;50.376;8.762;2022-10-16T05:58:59;5.27;;;3.70;;
23702;SDS011;12030;50.376;8.762;2022-10-16T06:01:24;3.87;;;3.50;;
23702;SDS011;12030;50.376;8.762;2022-10-16T06:03:50;5.23;;;3.07;;
23702;SDS011;12030;50.376;8.762;2022-10-16T06:06:20;4.10;;;3.23;;
23702;SDS011;12030;50.376;8.762;2022-10-16T06:08:49;5.27;;;3.60;;
23702;SDS011;12030;50.376;8.762;2022-10-16T06:11:16;4.80;;;3.20;;
23702;SDS011;12030;50.376;8.762;2022-10-16T06:13:43;4.03;;;3.60;;
23702;SDS011;12030;50.376;8.762;2022-10-16T06:16:11;3.83;;;2.90;;
23702;SDS011;12030;50.376;8.762;2022-10-16T06:18:37;3.47;;;2.80;;
23702;SDS011;12030;50.376;8.762;2022-10-16T06:21:07;6.73;;;2.53;;
23702;SDS011;12030;50.376;8.762;2022-10-16T06:23:35;4.03;;;2.73;;
23702;SDS011;12030;50.376;8.762;2022-10-16T06:26:04;4.33;;;2.53;;
23702;SDS011;12030;50.376;8.762;2022-10-16T06:28:34;5.70;;;2.80;;
23702;SDS011;12030;50.376;8.762;2022-10-16T06:31:00;2.90;;;2.30;;
23702;SDS011;12030;50.376;8.762;2022-10-16T06:33:26;3.03;;;2.47;;
23702;SDS011;12030;50.376;8.762;2022-10-16T06:35:52;3.03;;;2.50;;
23702;SDS011;12030;50.376;8.762;2022-10-16T06:38:17;3.90;;;2.60;;
23702;SDS011;12030;50.376;8.762;2022-10-16T06:40:43;3.03;;;2.20;;
23702;SDS011;12030;50.376;8.762;2022-10-16T06:43:08;5.10;;;2.80;;
23702;SDS011;12030;50.376;8.762;2022-10-16T06:45:34;5.27;;;2.00;;
23702;SDS011;12030;50.376;8.762;2022-10-16T06:47:59;2.50;;;2.27;;
23702;SDS011;12030;50.376;8.762;2022-10-16T06:50:25;2.10;;;1.90;;
23702;SDS011;12030;50.376;8.762;2022-10-16T06:52:51;2.07;;;1.70;;
23702;SDS011;12030;50.376;8.762;2022-10-16T06:55:16;2.37;;;1.57;;
23702;SDS011;12030;50.376;8.762;2022-10-16T06:57:42;2.53;;;1.90;;
23702;SDS011;12030;50.376;8.762;2022-10-16T07:00:08;2.60;;;2.40;;
23702;SDS011;12030;50.376;8.762;2022-10-16T07:02:34;2.90;;;2.20;;
23702;SDS011;12030;50.376;8.762;2022-10-16T07:05:00;1.93;;;1.73;;
23702;SDS011;12030;50.376;8.762;2022-10-16T07:07:26;2.40;;;1.73;;
23702;SDS011;12030;50.376;8.762;2022-10-16T07:09:51;2.73;;;1.60;;
23702;SDS011;12030;50.376;8.762;2022-10-16T07:12:17;2.63;;;1.57;;
23702;SDS011;12030;50.376;8.762;2022-10-16T07:14:43;1.87;;;1.70;;
23702;SDS011;12030;50.376;8.762;2022-10-16T07:17:08;1.93;;;1.40;;
23702;SDS011;12030;50.376;8.762;2022-10-16T07:19:34;2.83;;;1.33;;
23702;SDS011;12030;50.376;8.762;2022-10-16T07:22:00;2.00;;;1.50;;
23702;SDS011;12030;50.376;8.762;2022-10-16T07:24:26;1.70;;;1.50;;
23702;SDS011;12030;50.376;8.762;2022-10-16T07:26:51;5.00;;;1.57;;
23702;SDS011;12030;50.376;8.762;2022-10-16T07:29:18;2.17;;;1.33;;
23702;SDS011;12030;50.376;8.762;2022-10-16T07:31:45;6.63;;;1.60;;
23702;SDS011;12030;50.376;8.762;2022-10-16T07:34:12;5.30;;;1.63;;
23702;SDS011;12030;50.376;8.762;2022-10-16T07:36:38;1.87;;;1.63;;
23702;SDS011;12030;50.376;8.762;2022-10-16T07:39:04;3.40;;;1.80;;
23702;SDS011;12030;50.376;8.762;2022-10-16T07:41:30;5.07;;;1.70;;
23702;SDS011;12030;50.376;8.762;2022-10-16T07:43:57;2.13;;;1.50;;
23702;SDS011;12030;50.376;8.762;2022-10-16T07:46:25;3.17;;;1.93;;
23702;SDS011;12030;50.376;8.762;2022-10-16T07:48:51;4.57;;;1.53;;
23702;SDS011;12030;50.376;8.762;2022-10-16T07:51:18;2.83;;;1.70;;
23702;SDS011;12030;50.376;8.762;2022-10-16T07:53:45;2.37;;;1.50;;
23702;SDS011;12030;50.376;8.762;2022-10-16T07:56:12;2.80;;;1.53;;
23702;SDS011;12030;50.376;8.762;2022-10-16T07:58:38;4.10;;;1.80;;
23702;SDS011;12030;50.376;8.762;2022-10-16T08:01:04;3.00;;;1.43;;
23702;SDS011;12030;50.376;8.762;2022-10-16T08:03:31;3.13;;;1.90;;
23702;SDS011;12030;50.376;8.762;2022-10-16T08:05:57;4.37;;;1.80;;
23702;SDS011;12030;50.376;8.762;2022-10-16T08:08:24;2.63;;;1.90;;
23702;SDS011;12030;50.376;8.762;2022-10-16T08:10:49;2.13;;;1.97;;
23702;SDS011;12030;50.376;8.762;2022-10-16T08:13:15;3.97;;;3.00;;
23702;SDS011;12030;50.376;8.762;2022-10-16T08:15:41;3.63;;;1.70;;
23702;SDS011;12030;50.376;8.762;2022-10-16T08:18:07;3.13;;;1.60;;
23702;SDS011;12030;50.376;8.762;2022-10-16T08:20:34;5.20;;;1.70;;
23702;SDS011;12030;50.376;8.762;2022-10-16T08:23:00;3.30;;;1.70;;
23702;SDS011;12030;50.376;8.762;2022-10-16T08:25:26;4.97;;;1.60;;
23702;SDS011;12030;50.376;8.762;2022-10-16T08:27:51;2.73;;;1.70;;
23702;SDS011;12030;50.376;8.762;2022-10-16T08:30:17;4.40;;;1.77;;
23702;SDS011;12030;50.376;8.762;2022-10-16T08:32:45;3.23;;;1.83;;
23702;SDS011;12030;50.376;8.762;2022-10-16T08:35:11;2.63;;;2.10;;
23702;SDS011;12030;50.376;8.762;2022-10-16T08:37:38;6.83;;;2.43;;
23702;SDS011;12030;50.376;8.762;2022-10-16T08:40:05;3.03;;;1.60;;
23702;SDS011;12030;50.376;8.762;2022-10-16T08:42:38;2.03;;;1.93;;
23702;SDS011;12030;50.376;8.762;2022-10-16T08:48:06;5.00;;;2.90;;
23702;SDS011;12030;50.376;8.762;2022-10-16T08:50:51;2.37;;;2.10;;
23702;SDS011;12030;50.376;8.762;2022-10-16T08:53:25;3.73;;;2.17;;
23702;SDS011;12030;50.376;8.762;2022-10-16T08:55:56;1.97;;;1.77;;
23702;SDS011;12030;50.376;8.762;2022-10-16T08:58:26;4.27;;;2.30;;
23702;SDS011;12030;50.376;8.762;2022-10-16T09:00:54;2.70;;;1.83;;
23702;SDS011;12030;50.376;8.762;2022-10-16T09:03:29;2.97;;;2.67;;
23702;SDS011;12030;50.376;8.762;2022-10-16T09:09:06;2.93;;;2.57;;
23702;SDS011;12030;50.376;8.762;2022-10-16T09:11:54;3.30;;;2.00;;
23702;SDS011;12030;50.376;8.762;2022-10-16T09:14:35;3.40;;;2.00;;
23702;SDS011;12030;50.376;8.762;2022-10-16T09:25:29;4.00;;;1.93;;
23702;SDS011;12030;50.376;8.762;2022-10-16T09:27:55;3.13;;;1.90;;
23702;SDS011;12030;50.376;8.762;2022-10-16T09:30:21;2.40;;;1.87;;
23702;SDS011;12030;50.376;8.762;2022-10-16T09:32:48;2.10;;;1.53;;
23702;SDS011;12030;50.376;8.762;2022-10-16T09:35:18;1.93;;;1.53;;
23702;SDS011;12030;50.376;8.762;2022-10-16T09:37:47;3.73;;;1.60;;
23702;SDS011;12030;50.376;8.762;2022-10-16T09:40:31;3.23;;;1.50;;
23702;SDS011;12030;50.376;8.762;2022-10-16T09:45:56;2.63;;;1.70;;
23702;SDS011;12030;50.376;8.762;2022-10-16T09:48:24;3.00;;;1.93;;
23702;SDS011;12030;50.376;8.762;2022-10-16T09:51:33;2.87;;;2.10;;
23702;SDS011;12030;50.376;8.762;2022-10-16T09:56:35;3.43;;;1.90;;
23702;SDS011;12030;50.376;8.762;2022-10-16T09:59:10;2.47;;;2.10;;
23702;SDS011;12030;50.376;8.762;2022-10-16T10:01:36;2.47;;;2.00;;
23702;SDS011;12030;50.376;8.762;2022-10-16T10:04:07;3.73;;;1.80;;
23702;SDS011;12030;50.376;8.762;2022-10-16T10:06:34;4.23;;;1.83;;
23702;SDS011;12030;50.376;8.762;2022-10-16T10:09:04;5.00;;;1.83;;
23702;SDS011;12030;50.376;8.762;2022-10-16T10:14:20;4.20;;;1.97;;
23702;SDS011;12030;50.376;8.762;2022-10-16T10:16:48;2.23;;;1.80;;
23702;SDS011;12030;50.376;8.762;2022-10-16T10:19:18;3.17;;;2.07;;
23702;SDS011;12030;50.376;8.762;2022-10-16T10:21:46;2.60;;;2.10;;
23702;SDS011;12030;50.376;8.762;2022-10-16T10:24:13;2.20;;;1.87;;
23702;SDS011;12030;50.376;8.762;2022-10-16T10:26:51;3.10;;;2.40;;
23702;SDS011;12030;50.376;8.762;2022-10-16T10:45:43;2.90;;;2.60;;
23702;SDS011;12030;50.376;8.762;2022-10-16T10:48:16;5.30;;;2.50;;
23702;SDS011;12030;50.376;8.762;2022-10-16T10:53:47;3.03;;;2.73;;
23702;SDS011;12030;50.376;8.762;2022-10-16T10:57:14;3.20;;;2.87;;
23702;SDS011;12030;50.376;8.762;2022-10-16T11:07:38;2.87;;;2.20;;
23702;SDS011;12030;50.376;8.762;2022-10-16T11:10:14;2.90;;;2.20;;
23702;SDS011;12030;50.376;8.762;2022-10-16T11:12:44;3.07;;;2.43;;
23702;SDS011;12030;50.376;8.762;2022-10-16T11:15:18;2.27;;;2.07;;
23702;SDS011;12030;50.376;8.762;2022-10-16T11:17:53;4.90;;;2.23;;
23702;SDS011;12030;50.376;8.762;2022-10-16T11:20:26;2.53;;;1.90;;
23702;SDS011;12030;50.376;8.762;2022-10-16T11:23:20;2.47;;;2.00;;
23702;SDS011;12030;50.376;8.762;2022-10-16T11:25:50;4.87;;;1.80;;
23702;SDS011;12030;50.376;8.762;2022-10-16T11:28:24;2.30;;;1.73;;
23702;SDS011;12030;50.376;8.762;2022-10-16T11:31:02;2.03;;;1.83;;
23702;SDS011;12030;50.376;8.762;2022-10-16T11:33:45;2.57;;;1.70;;
23702;SDS011;12030;50.376;8.762;2022-10-16T11:36:27;2.20;;;2.00;;
23702;SDS011;12030;50.376;8.762;2022-10-16T11:47:24;2.53;;;2.07;;
23702;SDS011;12030;50.376;8.762;2022-10-16T11:49:52;5.40;;;2.23;;
23702;SDS011;12030;50.376;8.762;2022-10-16T11:52:28;3.10;;;2.27;;
23702;SDS011;12030;50.376;8.762;2022-10-16T11:57:32;4.30;;;1.83;;
23702;SDS011;12030;50.376;8.762;2022-10-16T12:00:10;7.43;;;1.70;;
23702;SDS011;12030;50.376;8.762;2022-10-16T12:02:50;4.87;;;1.70;;
23702;SDS011;12030;50.376;8.762;2022-10-16T12:05:22;1.50;;;1.40;;
23702;SDS011;12030;50.376;8.762;2022-10-16T12:08:18;3.13;;;1.60;;
23702;SDS011;12030;50.376;8.762;2022-10-16T12:10:45;3.73;;;1.40;;
23702;SDS011;12030;50.376;8.762;2022-10-16T12:16:24;1.43;;;1.30;;
23702;SDS011;12030;50.376;8.762;2022-10-16T12:18:49;2.47;;;1.10;;
23702;SDS011;12030;50.376;8.762;2022-10-16T12:21:34;4.07;;;1.20;;
23702;SDS011;12030;50.376;8.762;2022-10-16T12:24:00;2.07;;;1.10;;
23702;SDS011;12030;50.376;8.762;2022-10-16T12:26:30;1.40;;;0.90;;
23702;SDS011;12030;50.376;8.762;2022-10-16T12:29:09;2.97;;;1.17;;
23702;SDS011;12030;50.376;8.762;2022-10-16T12:31:56;2.50;;;0.90;;
23702;SDS011;12030;50.376;8.762;2022-10-16T12:34:29;2.90;;;1.00;;
23702;SDS011;12030;50.376;8.762;2022-10-16T12:37:08;2.70;;;0.97;;
23702;SDS011;12030;50.376;8.762;2022-10-16T12:39:34;1.00;;;0.90;;
23702;SDS011;12030;50.376;8.762;2022-10-16T12:42:05;2.50;;;1.00;;
23702;SDS011;12030;50.376;8.762;2022-10-16T12:44:45;2.67;;;1.20;;
23702;SDS011;12030;50.376;8.762;2022-10-16T12:49:55;1.77;;;1.27;;
23702;SDS011;12030;50.376;8.762;2022-10-16T12:52:39;2.63;;;1.20;;
23702;SDS011;12030;50.376;8.762;2022-10-16T12:55:05;1.80;;;1.30;;
23702;SDS011;12030;50.376;8.762;2022-10-16T12:57:57;3.53;;;1.63;;
23702;SDS011;12030;50.376;8.762;2022-10-16T13:00:56;2.27;;;1.70;;
23702;SDS011;12030;50.376;8.762;2022-10-16T13:06:02;4.47;;;1.60;;
23702;SDS011;12030;50.376;8.762;2022-10-16T13:09:19;3.53;;;1.53;;
23702;SDS011;12030;50.376;8.762;2022-10-16T13:15:12;1.70;;;1.40;;
23702;SDS011;12030;50.376;8.762;2022-10-16T13:19:57;2.60;;;1.60;;
23702;SDS011;12030;50.376;8.762;2022-10-16T13:28:00;1.70;;;1.60;;
23702;SDS011;12030;50.376;8.762;2022-10-16T13:30:27;2.27;;;1.70;;
23702;SDS011;12030;50.376;8.762;2022-10-16T13:33:01;2.03;;;1.50;;
23702;SDS011;12030;50.376;8.762;2022-10-16T13:35:30;1.40;;;1.30;;
23702;SDS011;12030;50.376;8.762;2022-10-16T13:38:09;1.47;;;1.27;;
23702;SDS011;12030;50.376;8.762;2022-10-16T13:40:36;2.93;;;1.40;;
23702;SDS011;12030;50.376;8.762;2022-10-16T13:43:12;2.93;;;1.47;;
23702;SDS011;12030;50.376;8.762;2022-10-16T13:45:38;1.70;;;1.37;;
23702;SDS011;12030;50.376;8.762;2022-10-16T13:48:09;1.40;;;1.30;;
23702;SDS011;12030;50.376;8.762;2022-10-16T13:50:37;2.47;;;1.30;;
23702;SDS011;12030;50.376;8.762;2022-10-16T13:53:06;4.30;;;1.60;;
23702;SDS011;12030;50.376;8.762;2022-10-16T13:55:37;1.33;;;1.20;;
23702;SDS011;12030;50.376;8.762;2022-10-16T13:58:07;1.57;;;0.97;;
23702;SDS011;12030;50.376;8.762;2022-10-16T14:00:36;1.57;;;1.20;;
23702;SDS011;12030;50.376;8.762;2022-10-16T14:03:04;4.20;;;1.20;;
23702;SDS011;12030;50.376;8.762;2022-10-16T14:05:31;1.60;;;1.20;;
23702;SDS011;12030;50.376;8.762;2022-10-16T14:07:57;2.00;;;1.20;;
23702;SDS011;12030;50.376;8.762;2022-10-16T14:10:30;3.20;;;1.37;;
23702;SDS011;12030;50.376;8.762;2022-10-16T14:12:58;1.47;;;1.03;;
23702;SDS011;12030;50.376;8.762;2022-10-16T14:15:30;1.73;;;1.30;;
23702;SDS011;12030;50.376;8.762;2022-10-16T14:17:57;2.30;;;1.40;;
23702;SDS011;12030;50.376;8.762;2022-10-16T14:20:24;1.47;;;1.37;;
23702;SDS011;12030;50.376;8.762;2022-10-16T14:28:38;2.07;;;1.30;;
23702;SDS011;12030;50.376;8.762;2022-10-16T14:33:49;2.17;;;1.33;;
23702;SDS011;12030;50.376;8.762;2022-10-16T14:36:15;3.40;;;1.63;;
23702;SDS011;12030;50.376;8.762;2022-10-16T14:39:05;1.37;;;1.27;;
23702;SDS011;12030;50.376;8.762;2022-10-16T14:41:43;2.03;;;1.60;;
23702;SDS011;12030;50.376;8.762;2022-10-16T14:44:11;1.67;;;1.30;;
23702;SDS011;12030;50.376;8.762;2022-10-16T14:46:39;2.40;;;1.43;;
23702;SDS011;12030;50.376;8.762;2022-10-16T14:51:35;4.13;;;1.40;;
23702;SDS011;12030;50.376;8.762;2022-10-16T14:54:01;1.80;;;1.20;;
23702;SDS011;12030;50.376;8.762;2022-10-16T14:56:32;3.10;;;1.60;;
23702;SDS011;12030;50.376;8.762;2022-10-16T14:59:25;2.57;;;1.60;;
23702;SDS011;12030;50.376;8.762;2022-10-16T15:01:57;4.73;;;1.47;;
23702;SDS011;12030;50.376;8.762;2022-10-16T15:04:23;2.37;;;1.40;;
23702;SDS011;12030;50.376;8.762;2022-10-16T15:06:48;2.70;;;1.60;;
23702;SDS011;12030;50.376;8.762;2022-10-16T15:09:14;2.10;;;1.50;;
23702;SDS011;12030;50.376;8.762;2022-10-16T15:11:40;1.77;;;1.40;;
23702;SDS011;12030;50.376;8.762;2022-10-16T15:14:08;1.77;;;1.40;;
23702;SDS011;12030;50.376;8.762;2022-10-16T15:16:38;1.90;;;1.70;;
23702;SDS011;12030;50.376;8.762;2022-10-16T15:19:04;3.70;;;1.90;;
23702;SDS011;12030;50.376;8.762;2022-10-16T15:21:30;1.60;;;1.50;;
23702;SDS011;12030;50.376;8.762;2022-10-16T15:23:57;4.97;;;1.43;;
23702;SDS011;12030;50.376;8.762;2022-10-16T15:26:24;3.03;;;1.60;;
23702;SDS011;12030;50.376;8.762;2022-10-16T15:28:50;3.93;;;1.50;;
23702;SDS011;12030;50.376;8.762;2022-10-16T15:31:16;2.00;;;1.53;;
23702;SDS011;12030;50.376;8.762;2022-10-16T15:33:42;1.63;;;1.53;;
23702;SDS011;12030;50.376;8.762;2022-10-16T15:36:08;2.33;;;1.60;;
23702;SDS011;12030;50.376;8.762;2022-10-16T15:38:34;1.83;;;1.57;;
23702;SDS011;12030;50.376;8.762;2022-10-16T15:40:59;2.97;;;1.60;;
23702;SDS011;12030;50.376;8.762;2022-10-16T15:43:25;1.50;;;1.40;;
23702;SDS011;12030;50.376;8.762;2022-10-16T15:46:04;3.20;;;1.40;;
23702;SDS011;12030;50.376;8.762;2022-10-16T15:48:31;1.67;;;1.47;;
23702;SDS011;12030;50.376;8.762;2022-10-16T15:50:57;3.00;;;2.27;;
23702;SDS011;12030;50.376;8.762;2022-10-16T15:53:23;3.60;;;1.47;;
23702;SDS011;12030;50.376;8.762;2022-10-16T15:55:48;2.20;;;1.63;;
23702;SDS011;12030;50.376;8.762;2022-10-16T15:58:14;1.90;;;1.73;;
23702;SDS011;12030;50.376;8.762;2022-10-16T16:00:39;2.10;;;1.90;;
23702;SDS011;12030;50.376;8.762;2022-10-16T16:03:05;2.33;;;2.13;;
23702;SDS011;12030;50.376;8.762;2022-10-16T16:05:30;2.13;;;1.93;;
23702;SDS011;12030;50.376;8.762;2022-10-16T16:07:58;2.40;;;2.20;;
23702;SDS011;12030;50.376;8.762;2022-10-16T16:10:24;2.63;;;2.30;;
23702;SDS011;12030;50.376;8.762;2022-10-16T16:12:50;4.00;;;2.43;;
23702;SDS011;12030;50.376;8.762;2022-10-16T16:15:18;2.80;;;2.43;;
23702;SDS011;12030;50.376;8.762;2022-10-16T16:17:45;4.20;;;2.57;;
23702;SDS011;12030;50.376;8.762;2022-10-16T16:20:10;2.63;;;2.43;;
23702;SDS011;12030;50.376;8.762;2022-10-16T16:22:37;3.03;;;2.47;;
23702;SDS011;12030;50.376;8.762;2022-10-16T16:25:03;4.07;;;2.33;;
23702;SDS011;12030;50.376;8.762;2022-10-16T16:27:28;3.43;;;2.10;;
23702;SDS011;12030;50.376;8.762;2022-10-16T16:29:57;4.37;;;2.73;;
23702;SDS011;12030;50.376;8.762;2022-10-16T16:32:23;4.23;;;2.50;;
23702;SDS011;12030;50.376;8.762;2022-10-16T16:34:49;4.90;;;2.60;;
23702;SDS011;12030;50.376;8.762;2022-10-16T16:37:14;2.87;;;2.40;;
23702;SDS011;12030;50.376;8.762;2022-10-16T16:39:40;5.20;;;2.40;;
23702;SDS011;12030;50.376;8.762;2022-10-16T16:42:05;2.30;;;2.10;;
23702;SDS011;12030;50.376;8.762;2022-10-16T16:44:32;2.40;;;1.83;;
23702;SDS011;12030;50.376;8.762;2022-10-16T16:47:00;2.83;;;2.10;;